Flight Track Log - Related Links

Times and Time Zones

All times are in EDT time to prevent confusion due to time zone crossing. See the JBU56 flight status page for this flight to view local times or setup timezone preferences in your user account.

Time Position Orientation Groundspeed Altitude Reporting Facility
EDT Latitude Longitude Course Direction KTS MPH feet Rate Location/Type
Mon 09:06:58 AM 38.9833 -77.5500 78° East 207 238 3,300  Level Potomac TRACON
Mon 09:07:58 AM 39.0333 -77.5667 345° North 224 258 6,400 2,737 Climbing Potomac TRACON
Mon 09:08:52 AM 39.0833 -77.5167 38° Northeast 275 316 8,500 1,947 Climbing Potomac TRACON
Mon 09:09:00 AM 39.0234 -76.9882 77° East  Level FlightAware Approximate
Mon 09:09:52 AM 39.1333 -77.4167 57° Northeast 321 369 10,100  Level Potomac TRACON
Mon 09:10:00 AM 39.0382 -76.9041 78° East  Level FlightAware Approximate
Mon 09:10:52 AM 39.1500 -77.3000 80° East 353 406 10,000  Level Potomac TRACON
Mon 09:11:00 AM 39.0523 -76.8198 78° East  Level FlightAware Approximate
Mon 09:12:00 AM 39.0663 -76.7355 78° East  Level FlightAware Approximate
Mon 09:13:10 AM 39.0736 -77.0408 111° Southeast 356 410 14,200  Level Washington Center
Mon 09:14:08 AM 39.0814 -76.9097 86° East 356 410 16,900 2,269 Climbing Washington Center
Mon 09:15:09 AM 39.0953 -76.7764 82° East 362 417 18,700 1,967 Climbing Washington Center
Mon 09:16:10 AM 39.1111 -76.6403 81° East 372 428 20,900 2,016 Climbing Washington Center
Mon 09:17:11 AM 39.1225 -76.5011 84° East 383 441 22,800 1,059 Climbing Washington Center
Mon 09:18:09 AM 39.1381 -76.3542 82° East 394 453 23,000 102 Climbing Washington Center
Mon 09:19:09 AM 39.1514 -76.2044 83° East 414 476 23,000  Level Washington Center
Mon 09:20:10 AM 39.1750 -76.0442 79° East 420 483 23,000 645 Level Washington Center
Mon 09:21:10 AM 39.1964 -75.8969 79° East 420 483 24,300 1,289 Climbing Washington Center
Mon 09:22:11 AM 39.2717 -75.7792 50° Northeast 411 473 25,600 1,190 Climbing Washington Center
Mon 09:23:11 AM 39.3614 -75.6639 45° Northeast 416 479 26,700 1,322 Climbing Washington Center
Mon 09:24:09 AM 39.4489 -75.5486 45° Northeast 437 503 28,200 1,462 Climbing Washington Center
Mon 09:25:10 AM 39.5383 -75.4328 45° Northeast 443 510 29,600 1,098 Climbing Washington Center
Mon 09:26:42 AM 39.6672 -75.2667 45° Northeast 441 507 31,000 545 Climbing New York Center
Mon 09:27:44 AM 39.7622 -75.1242 49° Northeast 448 516 31,000  Level New York Center
Mon 09:28:44 AM 39.8481 -75.0025 47° Northeast 456 525 31,000  Level New York Center
Mon 09:29:43 AM 39.9336 -74.8803 48° Northeast 456 525 31,000  Level New York Center
Mon 09:30:43 AM 40.0194 -74.7500 49° Northeast 456 525 31,000  Level New York Center
Mon 09:31:44 AM 40.0942 -74.6347 50° Northeast 464 534 31,000  Level New York Center
Mon 09:32:42 AM 40.1753 -74.5117 49° Northeast 459 528 31,000  Level New York Center
Mon 09:33:43 AM 40.2692 -74.3669 50° Northeast 464 534 31,000  Level New York Center
Mon 09:34:43 AM 40.3503 -74.2406 50° Northeast 464 534 31,000  Level New York Center
Mon 09:35:43 AM 40.4353 -74.1114 49° Northeast 464 534 31,000  Level New York Center
Mon 09:36:44 AM 40.5158 -73.9814 51° Northeast 459 528 31,000 -794 Level New York Center
Mon 09:38:52 AM 40.6969 -73.7019 49° Northeast 469 540 28,500 -1,628 Descending Boston Center
Mon 09:39:52 AM 40.7714 -73.5692 53° Northeast 464 534 25,900 -2,250 Descending Boston Center
Mon 09:40:52 AM 40.8536 -73.4472 48° Northeast 453 521 24,000 -1,000 Descending Boston Center
Mon 09:41:52 AM 40.9150 -73.3492 50° Northeast 441 507 23,900 -200 Descending Boston Center
Mon 09:42:52 AM 41.0097 -73.2186 46° Northeast 425 489 23,600 -300 Descending Boston Center
Mon 09:43:52 AM 41.0686 -73.1256 50° Northeast 414 476 23,300 -300 Descending Boston Center
Mon 09:44:52 AM 41.1611 -72.9914 47° Northeast 409 471 23,000 -150 Descending Boston Center
Mon 09:45:52 AM 41.2347 -72.8706 51° Northeast 414 476 23,000  Level Boston Center
Mon 09:46:52 AM 41.2872 -72.7303 63° Northeast 414 476 23,000  Level Boston Center
Mon 09:47:52 AM 41.3394 -72.5950 63° Northeast 414 476 23,000  Level Boston Center
Mon 09:48:52 AM 41.3897 -72.4567 64° Northeast 409 471 23,000  Level Boston Center
Mon 09:49:52 AM 41.4417 -72.3183 63° Northeast 409 471 23,000  Level Boston Center
Mon 09:50:52 AM 41.4894 -72.1853 64° Northeast 404 465 23,000  Level Boston Center
Mon 09:51:52 AM 41.5411 -72.0433 64° Northeast 404 465 23,000 -400 Level Boston Center
Mon 09:52:52 AM 41.5842 -71.9017 68° East 404 465 22,200 -1,500 Descending Boston Center
Mon 09:53:52 AM 41.6272 -71.7625 67° East 404 465 20,000 -2,100 Descending Boston Center
Mon 09:54:52 AM 41.6597 -71.6397 70° East 385 443 18,000 -2,050 Descending Boston Center
Mon 09:55:52 AM 41.7044 -71.4947 68° East 385 443 15,900 -2,100 Descending Boston Center
Mon 09:56:52 AM 41.7492 -71.3717 64° Northeast 364 419 13,800 -1,900 Descending Boston Center
Mon 09:57:52 AM 41.7981 -71.2567 60° Northeast 353 406 12,100 -1,400 Descending Boston Center
Mon 09:58:52 AM 41.8450 -71.1497 59° Northeast 342 394 11,000 -550 Descending Boston Center
Mon 09:59:52 AM 41.8894 -71.0431 61° Northeast 335 386 11,000  Level Boston Center
Mon 10:00:26 AM 41.9167 -70.9833 58° Northeast 325 374 11,000  Level KA90
Mon 10:01:20 AM 41.9500 -70.8833 66° East 324 373 11,000  Level KA90
Mon 10:01:52 AM 41.9706 -70.8569 44° Northeast 320 368 11,000 -391 Level Boston Center
Mon 10:02:52 AM 42.0231 -70.7522 56° Northeast 320 368 10,400 -1,100 Descending Boston Center
Mon 10:03:52 AM 42.0783 -70.6778 45° Northeast 295 339 8,800 -1,550 Descending Boston Center
Mon 10:04:52 AM 42.1528 -70.6478 17° North 267 307 7,300 -1,600 Descending Boston Center
Mon 10:05:52 AM 42.2231 -70.6178 18° North 262 302 5,600 -1,650 Descending Boston Center
Mon 10:06:52 AM 42.3006 -70.6408 348° North 256 295 4,000 -1,000 Descending Boston Center
Mon 10:07:52 AM 42.3661 -70.6867 333° Northwest 251 289 3,600 -450 Descending Boston Center
Mon 10:08:52 AM 42.4067 -70.7503 311° West 226 260 3,100 -768 Descending Boston Center
Mon 10:11:15 AM 42.3667 -70.9167 252° West 182 209 1,000 -828 Descending KA90
Mon 10:12:15 AM 42.3667 -70.9667 270° West 145 167 300 -700 Descending KA90

Login

Don't have an account? Register now (free) for customized features, flight alerts, and more!